Time;durP1;ratioP1;P1;durP2;ratioP2;P2;SDS_P1;SDS_P2;PMS_P1;PMS_P2;Temp;Humidity;BMP_temperature;BMP_pressure;BME280_temperature;BME280_humidity;BME280_pressure;Samples;Min_cycle;Max_cycle;Signal;HPM_P1;HPM_P2
2022/11/25 00:01:47;;;;;;;11.65;5.35;;;;;;;-2.62;59.70;100686.47;6105450;23;20013;-81
2022/11/25 00:04:13;;;;;;;10.57;4.78;;;;;;;-2.55;61.29;100685.19;6105765;23;20017;-80
2022/11/25 00:06:39;;;;;;;9.48;5.00;;;;;;;-2.80;59.40;100676.09;6106146;23;20022;-83
2022/11/25 00:09:09;;;;;;;11.23;5.50;;;;;;;-2.94;60.50;100715.13;6110459;23;20014;-79
2022/11/25 00:11:38;;;;;;;9.95;4.60;;;;;;;-3.06;60.07;100750.91;6142662;23;20013;-81
2022/11/25 00:14:06;;;;;;;7.78;4.40;;;;;;;-2.92;60.95;100746.66;6153264;23;20018;-81
2022/11/25 00:16:34;;;;;;;10.43;4.15;;;;;;;-3.16;61.00;100749.47;6090170;23;20033;-80
2022/11/25 00:19:00;;;;;;;10.02;3.97;;;;;;;-3.26;61.86;100721.72;6082224;23;20021;-82
2022/11/25 00:21:31;;;;;;;9.27;4.13;;;;;;;-3.24;61.00;100715.91;6106304;23;20020;-82
2022/11/25 00:23:59;;;;;;;8.85;4.20;;;;;;;-3.03;60.98;100759.66;6106504;23;20022;-82
2022/11/25 00:26:27;;;;;;;10.15;5.03;;;;;;;-2.97;61.11;100755.69;6081129;23;20161;-83
2022/11/25 00:28:56;;;;;;;8.80;4.38;;;;;;;-3.04;61.49;100736.63;6081613;23;20069;-82
2022/11/25 00:31:26;;;;;;;7.82;4.03;;;;;;;-2.81;61.22;100752.41;6081461;23;20444;-84
2022/11/25 00:33:52;;;;;;;9.43;4.50;;;;;;;-2.77;61.80;100736.53;6106154;23;20108;-83
2022/11/25 00:36:24;;;;;;;6.07;3.65;;;;;;;-2.82;60.61;100749.00;6106549;23;20018;-84
2022/11/25 00:39:11;;;;;;;7.68;3.88;;;;;;;-2.72;61.51;100751.31;6106547;23;20018;-82
2022/11/25 00:44:35;;;;;;;9.05;4.10;;;;;;;-2.73;61.64;100707.91;6106451;23;20042;-82
2022/11/25 00:47:09;;;;;;;7.97;3.80;;;;;;;-2.46;61.51;100746.00;6136781;23;20017;-81
2022/11/25 00:49:36;;;;;;;9.10;4.15;;;;;;;-2.95;61.56;100642.94;6063214;23;20026;-81
2022/11/25 00:52:03;;;;;;;7.25;4.03;;;;;;;-2.52;61.55;100718.47;6064193;23;20018;-84
2022/11/25 00:54:30;;;;;;;8.95;4.10;;;;;;;-3.13;61.26;100622.34;6060799;23;20313;-84
2022/11/25 00:56:57;;;;;;;7.88;3.90;;;;;;;-2.34;61.41;100759.47;6113439;23;20049;-84
2022/11/25 00:59:24;;;;;;;7.72;3.80;;;;;;;-2.64;61.17;100703.34;6134656;23;20026;-82
2022/11/25 01:01:51;;;;;;;6.47;3.70;;;;;;;-2.24;61.10;100762.56;6107724;23;20024;-83
2022/11/25 01:04:17;;;;;;;8.95;3.90;;;;;;;-2.40;60.28;100771.84;6107399;23;20046;-81
2022/11/25 01:06:43;;;;;;;9.52;4.03;;;;;;;-2.88;60.69;100718.06;6105903;23;20017;-82
2022/11/25 01:09:12;;;;;;;8.18;3.85;;;;;;;-2.52;61.09;100772.00;6107207;23;20097;-82
2022/11/25 01:11:38;;;;;;;9.38;4.35;;;;;;;-3.32;60.83;100640.75;6106453;23;20018;-83
2022/11/25 01:14:05;;;;;;;10.05;4.88;;;;;;;-2.96;61.01;100715.06;6105808;23;20022;-82
2022/11/25 01:16:31;;;;;;;10.10;4.35;;;;;;;-3.00;61.37;100663.84;6081853;23;20380;-81
2022/11/25 01:18:59;;;;;;;7.40;4.00;;;;;;;-2.24;61.18;100767.66;6130836;23;20025;-86
2022/11/25 01:21:31;;;;;;;8.90;3.97;;;;;;;-2.23;61.14;100771.97;6058255;23;20022;-83
2022/11/25 01:24:02;;;;;;;7.35;3.90;;;;;;;-2.57;60.50;100742.84;6081819;23;20484;-84
2022/11/25 01:26:29;;;;;;;10.55;5.18;;;;;;;-2.53;60.28;100777.88;6131312;23;20029;-84
2022/11/25 01:28:58;;;;;;;8.93;4.22;;;;;;;-3.13;60.22;100693.66;6107249;23;20014;-80
2022/11/25 01:31:26;;;;;;;9.75;4.90;;;;;;;-2.48;61.02;100788.38;6105168;23;20018;-84
2022/11/25 01:34:04;;;;;;;9.00;4.30;;;;;;;-2.44;60.69;100790.31;6106428;23;20017;-81
2022/11/25 01:36:30;;;;;;;12.98;5.68;;;;;;;-2.30;61.36;100793.66;6133321;23;20018;-83
2022/11/25 01:38:59;;;;;;;25.80;11.48;;;;;;;-2.98;60.03;100686.06;6109616;23;20017;-82
2022/11/25 01:41:27;;;;;;;24.73;10.07;;;;;;;-2.94;60.58;100684.56;6124682;23;20010;-82
2022/11/25 01:44:11;;;;;;;13.07;6.72;;;;;;;-2.33;59.67;100794.38;6121717;23;20049;-82
2022/11/25 01:46:53;;;;;;;11.05;5.22;;;;;;;-2.46;60.68;100790.22;6091486;23;20022;-83
2022/11/25 01:49:45;;;;;;;12.85;5.38;;;;;;;-2.58;60.67;100751.25;6102812;23;20017;-83
2022/11/25 01:52:23;;;;;;;18.35;8.88;;;;;;;-2.36;61.00;100790.78;6129227;23;20006;-83
2022/11/25 01:54:58;;;;;;;12.60;6.18;;;;;;;-2.55;60.24;100748.91;6125217;23;20021;-81
2022/11/25 01:57:38;;;;;;;12.73;5.40;;;;;;;-2.34;60.46;100782.41;6103248;23;20018;-79
2022/11/25 02:00:06;;;;;;;10.55;5.10;;;;;;;-2.60;60.63;100740.97;6102166;23;19998;-80
2022/11/25 02:02:43;;;;;;;7.55;4.40;;;;;;;-2.33;60.97;100783.31;6124353;23;19998;-80
2022/11/25 02:05:15;;;;;;;11.68;5.18;;;;;;;-2.38;60.42;100761.75;6126725;23;20043;-79
2022/11/25 02:07:44;;;;;;;10.07;4.72;;;;;;;-2.46;60.12;100767.28;6127167;23;20021;-81
2022/11/25 02:10:15;;;;;;;11.85;5.13;;;;;;;-2.68;60.28;100756.59;6103550;23;20029;-80
2022/11/25 02:12:44;;;;;;;11.00;5.60;;;;;;;-2.66;60.86;100749.91;6152734;23;20006;-79
2022/11/25 02:15:12;;;;;;;10.10;4.85;;;;;;;-2.57;60.84;100784.47;6102554;23;20040;-80
2022/11/25 02:17:38;;;;;;;9.25;4.75;;;;;;;-3.09;60.19;100693.06;6072634;23;20002;-78
2022/11/25 02:20:13;;;;;;;13.15;5.47;;;;;;;-2.64;60.47;100782.34;6119224;23;20045;-82
2022/11/25 02:22:54;;;;;;;8.90;4.50;;;;;;;-2.56;60.45;100780.28;6102476;23;20022;-80
2022/11/25 02:25:24;;;;;;;8.02;4.10;;;;;;;-2.53;60.83;100775.34;6102646;23;20021;-81
2022/11/25 02:27:56;;;;;;;5.85;3.90;;;;;;;-2.52;60.56;100776.22;6081945;23;20033;-79
2022/11/25 02:30:22;;;;;;;7.22;3.65;;;;;;;-2.39;61.04;100793.13;6078940;23;20467;-82
2022/11/25 02:32:49;;;;;;;7.72;3.92;;;;;;;-2.38;60.73;100779.59;6104404;23;20448;-79
2022/11/25 02:35:37;;;;;;;8.85;4.72;;;;;;;-2.33;60.89;100796.94;6129821;23;20021;-80
2022/11/25 02:38:12;;;;;;;8.82;4.82;;;;;;;-2.70;59.90;100776.00;6080110;23;20018;-80
2022/11/25 02:40:54;;;;;;;8.75;5.18;;;;;;;-2.68;59.70;100803.34;6130440;23;20022;-81
2022/11/25 02:43:20;;;;;;;10.00;5.45;;;;;;;-3.00;60.18;100766.59;6080782;23;20508;-81
2022/11/25 02:46:11;;;;;;;10.13;5.40;;;;;;;-2.67;59.82;100802.56;6103945;23;20465;-81
2022/11/25 02:48:42;;;;;;;9.82;5.30;;;;;;;-2.64;60.37;100818.03;6081791;23;20161;-80
2022/11/25 02:51:11;;;;;;;7.93;4.63;;;;;;;-3.09;58.79;100800.00;6081936;23;20022;-80
2022/11/25 02:53:37;;;;;;;11.50;5.43;;;;;;;-3.58;60.21;100757.09;6104019;23;20013;-81
2022/11/25 02:56:04;;;;;;;11.73;5.45;;;;;;;-3.07;60.96;100828.13;6104496;23;20396;-81
2022/11/25 02:58:30;;;;;;;11.48;6.60;;;;;;;-3.29;59.69;100820.81;6103493;23;20029;-81
2022/11/25 03:00:56;;;;;;;15.38;6.60;;;;;;;-3.08;60.53;100831.44;6078561;23;20018;-81
2022/11/25 03:03:21;;;;;;;11.82;6.25;;;;;;;-3.44;60.79;100767.25;6080509;23;20021;-82
2022/11/25 03:05:48;;;;;;;13.55;6.22;;;;;;;-3.36;61.03;100784.75;6131671;23;20076;-82
2022/11/25 03:08:15;;;;;;;8.05;5.47;;;;;;;-3.05;61.01;100819.81;6133503;23;20041;-80
2022/11/25 03:10:42;;;;;;;11.25;5.93;;;;;;;-2.89;61.14;100836.94;6116808;23;20038;-80
2022/11/25 03:13:10;;;;;;;10.20;5.28;;;;;;;-2.87;60.35;100834.47;6122099;23;20049;-80
2022/11/25 03:15:39;;;;;;;8.75;5.07;;;;;;;-3.16;60.54;100792.78;6114383;23;20014;-80
2022/11/25 03:18:06;;;;;;;12.93;5.43;;;;;;;-2.99;59.76;100846.44;6109006;23;20021;-82
2022/11/25 03:20:34;;;;;;;12.05;5.68;;;;;;;-3.08;60.10;100834.00;6081367;23;20018;-80
2022/11/25 03:23:04;;;;;;;10.85;5.18;;;;;;;-3.06;59.90;100857.88;6105869;23;20021;-82
2022/11/25 03:25:30;;;;;;;14.27;6.43;;;;;;;-3.11;61.09;100828.72;6079517;23;20017;-80
2022/11/25 03:27:56;;;;;;;8.10;4.25;;;;;;;-2.84;60.08;100865.22;6102648;23;20018;-81
2022/11/25 03:30:26;;;;;;;6.25;3.10;;;;;;;-2.89;59.81;100871.69;6079299;23;20022;-83
2022/11/25 03:32:56;;;;;;;6.78;3.35;;;;;;;-2.93;59.96;100864.63;6079350;23;20021;-82
2022/11/25 03:35:24;;;;;;;7.50;3.40;;;;;;;-2.98;60.42;100873.69;6103758;23;20018;-79
2022/11/25 03:37:50;;;;;;;8.57;3.67;;;;;;;-3.47;60.32;100821.41;6102834;23;20018;-83
2022/11/25 03:40:17;;;;;;;8.90;4.30;;;;;;;-3.50;60.25;100819.53;6102241;23;20014;-82
2022/11/25 03:42:44;;;;;;;7.97;4.45;;;;;;;-3.15;61.39;100842.91;6103017;23;20021;-80
2022/11/25 03:45:13;;;;;;;8.20;3.72;;;;;;;-3.05;60.47;100852.91;6078265;23;20483;-79
2022/11/25 03:47:41;;;;;;;7.47;4.13;;;;;;;-2.84;61.00;100885.63;6079623;23;20460;-84
2022/11/25 03:50:10;;;;;;;10.52;5.18;;;;;;;-3.00;60.70;100882.91;6078846;23;20099;-82
2022/11/25 03:52:37;;;;;;;11.90;5.90;;;;;;;-3.13;60.49;100836.25;6103556;23;20014;-84
2022/11/25 03:55:05;;;;;;;9.75;4.70;;;;;;;-3.11;59.64;100869.47;6102808;23;20028;-81
2022/11/25 03:57:33;;;;;;;10.48;5.35;;;;;;;-3.37;60.44;100841.56;6078094;23;20072;-83
2022/11/25 04:00:00;;;;;;;13.25;5.00;;;;;;;-3.52;59.85;100840.56;6102164;23;20018;-80
2022/11/25 04:02:32;;;;;;;10.32;4.40;;;;;;;-3.28;60.73;100868.41;6079878;23;20033;-80
2022/11/25 04:04:58;;;;;;;10.25;4.40;;;;;;;-3.01;61.24;100873.50;6131908;23;20017;-81
2022/11/25 04:07:24;;;;;;;7.95;4.63;;;;;;;-2.79;60.85;100901.19;6104325;23;20474;-81
2022/11/25 04:09:52;;;;;;;9.68;4.72;;;;;;;-2.99;59.29;100871.91;6103382;23;20021;-81
2022/11/25 04:13:05;;;;;;;11.45;4.97;;;;;;;-3.11;60.79;100890.72;6078841;23;20028;-80
2022/11/25 04:15:18;;;;;;;12.18;5.35;;;;;;;-3.18;60.71;100878.38;6098068;23;20407;-81
2022/11/25 04:17:48;;;;;;;9.60;5.00;;;;;;;-3.70;60.73;100784.28;6103475;23;20026;-80
2022/11/25 04:20:14;;;;;;;9.13;4.93;;;;;;;-3.12;60.69;100904.22;6108375;23;20025;-81
2022/11/25 04:22:45;;;;;;;10.40;4.97;;;;;;;-3.68;59.40;100867.56;6135683;23;20446;-80
2022/11/25 04:25:11;;;;;;;11.02;5.03;;;;;;;-3.44;61.04;100905.59;6115843;23;20007;-81
2022/11/25 04:27:39;;;;;;;8.13;4.25;;;;;;;-3.52;60.17;100902.53;6127353;23;20049;-79
2022/11/25 04:30:07;;;;;;;7.47;4.18;;;;;;;-3.86;60.64;100848.56;6152492;23;20006;-82
2022/11/25 04:32:37;;;;;;;11.45;4.85;;;;;;;-3.74;60.15;100897.69;6101773;23;20029;-81
2022/11/25 04:35:05;;;;;;;10.40;5.70;;;;;;;-3.59;61.37;100904.56;6112559;23;20017;-80
2022/11/25 04:37:32;;;;;;;11.93;6.10;;;;;;;-3.57;62.34;100898.81;6084718;23;20089;-82
2022/11/25 04:39:59;;;;;;;15.18;8.65;;;;;;;-3.48;61.48;100888.34;6094963;23;20025;-82
2022/11/25 04:42:33;;;;;;;12.48;5.85;;;;;;;-3.51;60.91;100916.16;6121736;23;20025;-80
2022/11/25 04:45:08;;;;;;;11.80;5.85;;;;;;;-3.49;61.64;100917.13;6088685;23;20017;-80
2022/11/25 04:47:34;;;;;;;10.25;5.00;;;;;;;-3.57;62.01;100865.72;6132144;23;20018;-82
2022/11/25 04:50:02;;;;;;;6.15;3.53;;;;;;;-3.45;60.96;100875.84;6107583;23;20018;-81
2022/11/25 04:52:30;;;;;;;11.57;4.60;;;;;;;-3.58;61.31;100886.88;6081355;23;20029;-80
2022/11/25 04:54:56;;;;;;;10.07;4.70;;;;;;;-3.38;62.08;100894.94;6080183;23;20081;-83
2022/11/25 04:57:23;;;;;;;9.95;4.70;;;;;;;-3.36;60.88;100898.47;6080451;23;20412;-80
2022/11/25 04:59:51;;;;;;;8.98;5.20;;;;;;;-3.66;62.03;100858.38;6056109;23;20018;-80
2022/11/25 05:02:23;;;;;;;9.52;5.10;;;;;;;-3.22;62.06;100912.09;6131766;23;20452;-81
2022/11/25 05:04:56;;;;;;;7.82;4.68;;;;;;;-3.29;61.17;100915.00;6129466;23;20474;-81
2022/11/25 05:07:25;;;;;;;8.88;4.47;;;;;;;-3.33;62.42;100919.88;6106256;23;20018;-81
2022/11/25 05:09:53;;;;;;;7.85;4.03;;;;;;;-3.50;60.24;100912.81;6080812;23;20477;-80
2022/11/25 05:12:31;;;;;;;9.10;4.45;;;;;;;-3.86;61.60;100857.06;6082093;23;20542;-81
2022/11/25 05:14:58;;;;;;;9.43;4.60;;;;;;;-3.51;62.26;100926.31;6104112;23;20053;-79
2022/11/25 05:17:28;;;;;;;9.30;5.00;;;;;;;-3.74;61.73;100867.16;6106170;23;20028;-80
2022/11/25 05:19:55;;;;;;;8.50;4.63;;;;;;;-3.42;61.67;100914.19;6105575;23;20349;-81
2022/11/25 05:22:24;;;;;;;9.82;5.47;;;;;;;-3.39;62.04;100914.38;6131034;23;20021;-84
2022/11/25 05:24:50;;;;;;;13.88;6.68;;;;;;;-3.27;62.78;100914.31;6105577;23;20132;-78
2022/11/25 05:27:18;;;;;;;14.43;6.65;;;;;;;-3.08;62.77;100921.47;6106876;23;20018;-83
2022/11/25 05:29:45;;;;;;;13.20;5.38;;;;;;;-3.16;61.42;100927.72;6105095;23;20045;-82
2022/11/25 05:32:12;;;;;;;12.82;5.68;;;;;;;-3.21;61.60;100929.13;6082501;23;20077;-80
2022/11/25 05:34:39;;;;;;;20.38;9.27;;;;;;;-3.35;61.45;100913.81;6080345;23;20037;-81
2022/11/25 05:37:09;;;;;;;26.50;10.18;;;;;;;-3.57;62.42;100885.19;6104835;23;20029;-81
2022/11/25 05:39:37;;;;;;;13.80;6.72;;;;;;;-3.12;62.90;100922.06;6106646;23;20026;-79
2022/11/25 05:42:30;;;;;;;8.77;5.22;;;;;;;-3.90;61.78;100805.91;6077883;23;20546;-80
2022/11/25 05:45:01;;;;;;;9.70;4.63;;;;;;;-3.67;61.41;100899.88;6115084;23;20029;-80
2022/11/25 05:47:30;;;;;;;9.60;4.65;;;;;;;-3.56;62.65;100899.69;6083063;23;20018;-80
2022/11/25 05:49:57;;;;;;;11.15;5.10;;;;;;;-3.64;62.75;100897.50;6113195;23;20050;-80
2022/11/25 05:52:23;;;;;;;9.48;4.65;;;;;;;-3.68;61.71;100892.13;6088504;23;20021;-78
2022/11/25 05:54:55;;;;;;;12.25;4.25;;;;;;;-3.47;61.74;100938.47;6111692;23;20112;-77
2022/11/25 05:57:21;;;;;;;11.32;6.25;;;;;;;-3.64;62.33;100917.00;6111086;23;20329;-81
2022/11/25 05:59:54;;;;;;;10.65;4.82;;;;;;;-3.51;61.98;100954.31;6133693;23;20105;-78
2022/11/25 06:02:40;;;;;;;11.02;5.05;;;;;;;-3.53;62.01;100943.16;6105315;23;20017;-80
2022/11/25 06:05:10;;;;;;;8.55;4.47;;;;;;;-3.66;62.38;100950.00;6104663;23;20029;-82
2022/11/25 06:07:36;;;;;;;8.10;4.47;;;;;;;-4.13;62.29;100897.66;6082988;23;20069;-80
2022/11/25 06:10:04;;;;;;;10.93;5.03;;;;;;;-3.96;62.72;100934.41;6150318;23;19998;-77
2022/11/25 06:12:33;;;;;;;11.55;5.63;;;;;;;-3.94;62.71;100943.03;6141648;23;20025;-79
2022/11/25 06:14:59;;;;;;;9.90;5.80;;;;;;;-3.87;62.76;100959.59;6103737;23;20080;-81
2022/11/25 06:17:26;;;;;;;9.25;5.03;;;;;;;-3.79;62.98;100965.19;6102491;23;20024;-79
2022/11/25 06:20:03;;;;;;;12.18;5.10;;;;;;;-3.96;62.89;100921.69;6080907;23;20101;-80
2022/11/25 06:22:29;;;;;;;11.88;5.13;;;;;;;-3.72;63.67;100925.78;6078721;23;20014;-81
2022/11/25 06:24:58;;;;;;;10.38;6.00;;;;;;;-3.44;62.94;100959.06;6054687;23;20064;-79
2022/11/25 06:27:26;;;;;;;16.30;6.88;;;;;;;-3.47;62.57;100971.56;6079582;23;20092;-78
2022/11/25 06:30:28;;;;;;;11.32;5.80;;;;;;;-3.65;62.98;100961.03;6081560;23;20132;-81
2022/11/25 06:33:16;;;;;;;11.90;6.22;;;;;;;-4.61;63.81;100782.63;6046731;23;20023;-82
2022/11/25 06:36:21;;;;;;;17.15;7.00;;;;;;;-3.10;63.90;100973.97;6040929;23;20018;-80
2022/11/25 06:39:20;;;;;;;10.27;5.07;;;;;;;-3.10;62.86;100975.66;6104662;23;20049;-80
2022/11/25 06:41:49;;;;;;;10.52;5.22;;;;;;;-3.13;61.92;100978.00;6082299;23;20018;-79
2022/11/25 06:44:15;;;;;;;10.93;5.60;;;;;;;-3.31;62.55;100985.31;6082950;23;20029;-80
2022/11/25 06:46:56;;;;;;;12.88;5.45;;;;;;;-4.21;61.99;100827.63;6107394;23;20022;-81
2022/11/25 06:50:03;;;;;;;14.23;6.88;;;;;;;-3.43;63.57;100963.38;6082517;23;20104;-81
2022/11/25 06:52:56;;;;;;;14.50;6.95;;;;;;;-3.62;63.28;100900.16;6065560;23;20052;-80
2022/11/25 06:55:23;;;;;;;15.18;7.38;;;;;;;-2.96;63.64;100981.63;6144606;23;20018;-81
2022/11/25 06:58:05;;;;;;;12.98;6.90;;;;;;;-2.69;63.55;101002.91;6120479;23;20025;-80
2022/11/25 07:00:31;;;;;;;12.02;6.70;;;;;;;-2.88;63.10;100960.09;6112552;23;20473;-79
2022/11/25 07:03:03;;;;;;;12.13;5.82;;;;;;;-3.97;63.09;100736.81;6104063;23;20363;-80
2022/11/25 07:17:08;;;;;;;12.80;6.20;;;;;;;-4.43;63.00;100731.25;6100190;23;20024;-81
2022/11/25 07:20:07;;;;;;;15.00;6.60;;;;;;;-2.63;63.30;100997.31;6096833;23;20422;-80
2022/11/25 07:22:36;;;;;;;14.32;7.35;;;;;;;-2.96;63.84;100931.56;6128916;23;20101;-84
2022/11/25 07:25:02;;;;;;;15.57;8.27;;;;;;;-3.04;63.13;100904.72;6079489;23;20542;-83
2022/11/25 07:27:29;;;;;;;22.92;10.70;;;;;;;-2.29;63.41;101001.97;6126666;23;20036;-79
2022/11/25 07:29:55;;;;;;;16.35;7.40;;;;;;;-2.59;63.23;100955.97;6077783;23;20100;-79
2022/11/25 07:32:23;;;;;;;14.80;7.25;;;;;;;-2.50;62.36;100983.69;6151824;23;20045;-80
2022/11/25 07:34:52;;;;;;;11.43;5.65;;;;;;;-2.58;62.76;100986.63;6101930;23;20217;-78
2022/11/25 07:37:18;;;;;;;14.15;5.65;;;;;;;-2.47;63.07;100987.31;6133019;23;20017;-80
2022/11/25 07:40:17;;;;;;;12.18;6.43;;;;;;;-2.49;61.40;101022.00;6142913;23;20022;-82
2022/11/25 07:44:31;;;;;;;;;;;;;;;;;;;;;
2022/11/25 07:48:15;;;;;;;13.02;6.32;;;;;;;-2.38;62.81;101004.84;6106017;23;20019;-81
2022/11/25 07:51:40;;;;;;;13.52;6.40;;;;;;;-2.27;62.26;101013.16;6111550;23;20534;-79
2022/11/25 07:54:38;;;;;;;12.35;6.05;;;;;;;-3.88;62.16;100767.06;6101801;23;20033;-81
2022/11/25 07:57:07;;;;;;;14.50;6.30;;;;;;;-3.27;62.68;100857.44;6105287;23;20069;-82
2022/11/25 07:59:44;;;;;;;13.27;6.15;;;;;;;-2.95;62.75;100877.28;6081482;23;20018;-81
2022/11/25 08:02:12;;;;;;;11.80;5.75;;;;;;;-2.09;62.64;101013.44;6106122;23;20017;-80
2022/11/25 08:04:46;;;;;;;13.10;5.70;;;;;;;-2.50;62.30;100937.81;6120340;23;20018;-83
2022/11/25 08:07:26;;;;;;;11.07;5.35;;;;;;;-3.24;62.39;100810.13;6133088;23;20456;-83
2022/11/25 08:10:00;;;;;;;15.15;6.63;;;;;;;-3.16;61.52;100805.50;6109520;23;20186;-82
2022/11/25 08:12:33;;;;;;;12.68;6.55;;;;;;;-2.93;61.35;100879.94;6110547;23;20018;-80
2022/11/25 08:15:21;;;;;;;14.00;5.85;;;;;;;-2.07;62.46;101031.38;6080807;23;20018;-82
2022/11/25 08:17:51;;;;;;;12.75;6.32;;;;;;;-2.93;61.43;100902.84;6106993;23;20093;-81
2022/11/25 08:30:04;;;;;;;16.20;7.03;;;;;;;-2.34;61.57;101036.53;5800200;24;20096;-82
2022/11/25 08:32:50;;;;;;;17.33;8.68;;;;;;;-2.73;62.42;100944.88;5929337;23;20094;-79
2022/11/25 08:35:36;;;;;;;14.82;8.45;;;;;;;-3.03;62.94;100915.03;6077312;23;20021;-81
2022/11/25 08:38:14;;;;;;;14.27;6.45;;;;;;;-3.37;62.72;100792.31;6105170;23;20018;-79
2022/11/25 08:45:17;;;;;;;;;;;;;;;-1.71;61.14;101031.88;6123027;23;20165;-79
2022/11/25 08:47:59;;;;;;;9.82;4.50;;;;;;;-2.33;60.73;100936.31;6086283;23;20353;-81
2022/11/25 08:50:25;;;;;;;13.07;5.32;;;;;;;-2.24;60.56;101021.00;6083127;23;20112;-83
2022/11/25 08:52:51;;;;;;;16.48;9.07;;;;;;;-2.21;61.73;101048.41;6112478;23;20018;-81
2022/11/25 08:55:17;;;;;;;15.40;7.95;;;;;;;-2.35;61.20;101022.03;6116640;23;20100;-80
2022/11/25 08:57:59;;;;;;;14.73;6.85;;;;;;;-2.00;62.20;101041.19;6115031;23;20018;-82
2022/11/25 09:00:48;;;;;;;14.93;6.03;;;;;;;-2.99;61.63;100880.44;6059706;23;20487;-80
2022/11/25 09:03:17;;;;;;;13.77;6.60;;;;;;;-1.86;62.18;101054.78;6137795;23;20048;-80
2022/11/25 09:05:44;;;;;;;12.43;5.80;;;;;;;-2.69;60.83;100949.41;6084581;23;20047;-81
2022/11/25 09:08:16;;;;;;;13.38;6.22;;;;;;;-2.83;61.95;100938.34;6102835;23;20005;-80
2022/11/25 09:10:43;;;;;;;15.48;7.53;;;;;;;-2.08;62.35;101055.13;6128272;23;20029;-81
2022/11/25 09:13:10;;;;;;;12.32;5.63;;;;;;;-2.51;61.58;100942.00;6126284;23;20033;-79
2022/11/25 09:15:41;;;;;;;16.83;7.88;;;;;;;-2.67;61.48;100913.81;6101091;23;20018;-79
2022/11/25 09:18:15;;;;;;;10.88;5.45;;;;;;;-2.74;60.77;100907.44;6105901;23;20043;-82
2022/11/25 09:21:05;;;;;;;10.60;5.28;;;;;;;-2.36;61.11;100957.38;6126826;23;20049;-80
2022/11/25 09:23:38;;;;;;;9.45;4.38;;;;;;;-2.16;60.54;101050.44;6122354;23;20028;-81
2022/11/25 09:26:21;;;;;;;13.52;5.82;;;;;;;-2.35;60.62;101017.78;6121765;23;20028;-82
2022/11/25 09:28:47;;;;;;;15.88;5.47;;;;;;;-3.08;61.79;100885.81;6083200;23;20412;-79
2022/11/25 09:31:22;;;;;;;10.82;5.93;;;;;;;-2.64;61.43;100934.38;6104611;23;20112;-80
2022/11/25 09:34:00;;;;;;;12.45;5.10;;;;;;;-2.51;62.02;100941.13;6103409;23;20349;-80
2022/11/25 09:36:33;;;;;;;12.90;5.43;;;;;;;-3.45;60.90;100796.94;6106829;23;20025;-82
2022/11/25 09:38:59;;;;;;;10.80;5.95;;;;;;;-2.40;60.94;100986.00;6103453;23;20021;-79
2022/11/25 09:48:47;;;;;;;11.43;4.78;;;;;;;-2.38;60.58;101048.19;6078356;23;20013;-80
2022/11/25 09:51:45;;;;;;;14.05;6.25;;;;;;;-2.47;61.19;101045.94;6078368;23;20120;-83
2022/11/25 09:54:36;;;;;;;16.15;5.35;;;;;;;-2.58;61.05;101046.94;6055515;23;20033;-82
2022/11/25 09:57:23;;;;;;;12.05;5.15;;;;;;;-2.78;61.27;101036.34;6122884;23;20025;-82
2022/11/25 10:00:20;;;;;;;10.65;5.95;;;;;;;-3.76;61.99;100900.94;6068766;23;20015;-82
2022/11/25 10:03:34;;;;;;;12.48;5.13;;;;;;;-4.11;61.43;100862.19;6047465;23;20081;-82
2022/11/25 10:06:39;;;;;;;12.50;5.68;;;;;;;-3.55;62.39;100948.16;6023576;23;20051;-80
2022/11/25 10:15:32;;;;;;;10.77;4.88;;;;;;;-2.87;62.02;101049.34;6096982;23;20033;-81
2022/11/25 10:18:51;;;;;;;;;;;;;;;-2.84;61.96;101037.59;6133735;23;20498;-80
2022/11/25 10:25:51;;;;;;;18.20;7.55;;;;;;;-3.87;62.46;100836.63;6160663;23;20081;-80
2022/11/25 10:28:39;;;;;;;18.55;5.90;;;;;;;-2.45;62.55;101058.81;6113189;23;20045;-83
2022/11/25 10:31:21;;;;;;;11.57;4.60;;;;;;;-2.99;62.16;100995.06;6132900;23;20013;-79
2022/11/25 10:34:18;;;;;;;;;;;;;;;-2.35;61.55;101057.72;6134235;23;20020;-78
2022/11/25 10:37:13;;;;;;;14.80;6.03;;;;;;;-2.99;62.10;100984.00;6171959;23;19912;-82
2022/11/25 10:39:57;;;;;;;9.75;3.88;;;;;;;-3.70;60.77;100901.31;6170496;23;20024;-79
2022/11/25 10:47:12;;;;;;;;;;;;;;;;;;;;;
2022/11/25 10:50:25;;;;;;;11.75;4.25;;;;;;;-2.18;62.19;101092.81;5991521;23;20118;-81
2022/11/25 11:01:36;;;;;;;12.07;5.25;;;;;;;-2.49;61.28;101087.44;6109761;23;20356;-82
2022/11/25 11:04:17;;;;;;;10.02;4.63;;;;;;;-2.74;62.22;101045.94;6156606;23;20041;-82
2022/11/25 11:06:48;;;;;;;12.27;6.07;;;;;;;-2.37;61.88;101080.56;6151534;23;20017;-80
2022/11/25 11:09:41;;;;;;;13.35;6.15;;;;;;;-2.47;60.82;101102.03;6152601;23;20080;-80
2022/11/25 11:12:37;;;;;;;12.60;6.40;;;;;;;-2.40;62.28;101099.88;6156659;23;20407;-81
2022/11/25 11:15:30;;;;;;;15.02;6.72;;;;;;;-2.35;61.72;101101.94;6083653;23;20408;-82
2022/11/25 11:18:13;;;;;;;12.65;5.68;;;;;;;-2.12;62.09;101099.97;6130916;23;20017;-81
2022/11/25 11:21:00;;;;;;;12.18;6.20;;;;;;;-2.45;61.86;101033.31;6132515;23;20029;-82
2022/11/25 11:23:28;;;;;;;14.85;5.40;;;;;;;-2.28;62.32;101035.25;6106482;23;20028;-80
2022/11/25 11:26:25;;;;;;;10.23;4.07;;;;;;;-2.73;61.98;100978.03;6132667;23;20018;-83
2022/11/25 11:29:53;;;;;;;9.00;4.63;;;;;;;-2.07;60.98;101095.16;6090494;23;20024;-80
2022/11/25 11:33:12;;;;;;;8.18;3.70;;;;;;;-2.64;60.71;101023.59;6112967;23;20052;-79
2022/11/25 11:36:16;;;;;;;12.82;4.57;;;;;;;-2.88;61.01;101019.56;6082263;23;20018;-81
2022/11/25 11:39:39;;;;;;;10.55;4.95;;;;;;;-2.38;61.84;101098.31;6082318;23;20540;-80
2022/11/25 11:47:36;;;;;;;11.93;5.72;;;;;;;-3.94;60.48;100871.81;6139221;23;20052;-79
2022/11/25 12:03:24;;;;;;;9.43;4.53;;;;;;;-3.02;61.56;100992.31;6026157;23;20015;-77
2022/11/25 12:05:58;;;;;;;12.18;4.40;;;;;;;-3.24;61.44;100944.19;6058033;23;20076;-82
2022/11/25 12:08:50;;;;;;;9.85;5.65;;;;;;;-2.25;61.72;101126.34;6057546;23;20068;-80
2022/11/25 12:11:47;;;;;;;12.70;6.27;;;;;;;-2.70;61.68;101029.19;6026076;23;20034;-82
2022/11/25 12:14:41;;;;;;;9.10;5.55;;;;;;;-2.04;61.83;101133.63;5997922;23;20512;-82
2022/11/25 12:18:03;;;;;;;;;;;;;;;;;;;;;
2022/11/25 12:21:58;;;;;;;7.10;3.35;;;;;;;-2.17;61.83;101132.84;5995168;24;20035;-80
2022/11/25 12:24:46;;;;;;;8.30;4.30;;;;;;;-2.04;61.79;101131.06;6004121;23;20053;-82
2022/11/25 12:31:29;;;;;;;11.77;6.28;;;;;;;-2.17;61.31;101127.75;5969984;24;20031;-80
2022/11/25 12:34:39;;;;;;;11.68;5.10;;;;;;;-1.94;61.20;101133.44;5967993;24;20340;-80
2022/11/25 12:37:15;;;;;;;11.43;5.28;;;;;;;-2.53;60.57;101055.75;6022184;23;20131;-78
2022/11/25 12:40:42;;;;;;;8.77;4.78;;;;;;;-1.89;61.74;101166.88;6080448;23;20022;-81
2022/11/25 12:43:40;;;;;;;9.32;5.35;;;;;;;-1.83;61.34;101139.19;6057042;23;20018;-80
2022/11/25 12:46:44;;;;;;;10.50;4.60;;;;;;;-2.61;60.15;101098.59;6103612;23;20022;-81
2022/11/25 12:49:42;;;;;;;10.25;4.88;;;;;;;-2.16;61.35;101165.22;6080280;23;20081;-80
2022/11/25 12:52:11;;;;;;;7.63;4.40;;;;;;;-2.01;61.12;101151.66;6078998;23;20025;-80
2022/11/25 12:55:38;;;;;;;8.80;4.22;;;;;;;-1.91;61.35;101150.59;6054235;23;20030;-81
2022/11/25 12:58:22;;;;;;;9.40;4.28;;;;;;;-1.81;61.90;101152.94;5989954;23;20035;-84
2022/11/25 13:01:13;;;;;;;7.97;3.90;;;;;;;-1.82;61.33;101152.03;6075468;23;20021;-80
2022/11/25 13:03:58;;;;;;;;;;;;;;;-1.83;60.65;101157.06;6053780;23;20025;-81
2022/11/25 13:07:02;;;;;;;8.35;4.70;;;;;;;-1.74;61.87;101156.75;6103730;23;19917;-82
2022/11/25 13:09:35;;;;;;;8.05;4.35;;;;;;;-1.73;61.61;101163.63;6101151;23;20419;-83
2022/11/25 13:12:18;;;;;;;9.27;4.90;;;;;;;-1.63;61.57;101171.06;6130608;23;20010;-79
2022/11/25 13:15:15;;;;;;;10.95;5.28;;;;;;;-1.74;60.79;101175.50;6087879;23;20473;-81
2022/11/25 13:17:49;;;;;;;8.90;5.00;;;;;;;-3.16;60.45;100937.06;6100269;23;20070;-79
2022/11/25 13:20:29;;;;;;;10.82;4.18;;;;;;;-1.70;60.63;101177.47;6129850;23;20025;-83
2022/11/25 13:23:00;;;;;;;7.05;3.95;;;;;;;-1.77;59.51;101174.44;6137377;23;20022;-81
2022/11/25 13:25:28;;;;;;;8.18;4.05;;;;;;;-2.26;59.81;101129.69;6136078;23;20091;-82
2022/11/25 13:27:59;;;;;;;8.95;4.35;;;;;;;-2.32;59.63;101155.69;6133969;23;20041;-83
2022/11/25 13:30:31;;;;;;;10.85;4.72;;;;;;;-2.16;60.93;101177.97;6094267;23;20021;-84
2022/11/25 13:33:49;;;;;;;9.43;4.53;;;;;;;-2.15;60.48;101164.44;6118740;23;20054;-84